Time;durP1;ratioP1;P1;durP2;ratioP2;P2;SDS_P1;SDS_P2;PMS_P1;PMS_P2;Temp;Humidity;BMP_temperature;BMP_pressure;BME280_temperature;BME280_humidity;BME280_pressure;Samples;Min_cycle;Max_cycle;Signal;HPM_P1;HPM_P2
2022/08/31 00:09:50;;;;;;;2.65;1.90;;;;;;;;;;12659283;28;20040;-75
2022/08/31 00:15:54;;;;;;;2.45;1.95;;;;;;;;;;12641058;28;20059;-76
2022/08/31 00:21:55;;;;;;;1.92;1.70;;;;;;;;;;12659397;28;20032;-75
2022/08/31 00:27:57;;;;;;;3.00;2.03;;;;;;;;;;12658984;28;20036;-75
2022/08/31 00:33:59;;;;;;;2.05;1.50;;;;;;;;;;12659291;28;20039;-75
2022/08/31 00:40:01;;;;;;;3.30;2.00;;;;;;;;;;12641393;28;20051;-75
2022/08/31 00:46:03;;;;;;;;;;;;;;;;;;12637918;28;20032;-75
2022/08/31 00:52:13;;;;;;;2.87;1.70;;;;;;;;;;12650717;28;20374;-75
2022/08/31 00:58:14;;;;;;;4.60;1.83;;;;;;;;;;12650628;28;20389;-75
2022/08/31 01:04:16;;;;;;;2.33;2.00;;;;;;;;;;12650446;28;20035;-75
2022/08/31 01:10:20;;;;;;;2.13;1.90;;;;;;;;;;12649828;28;20474;-76
2022/08/31 01:16:24;;;;;;;2.00;1.63;;;;;;;;;;12631358;28;20043;-75
2022/08/31 01:22:26;;;;;;;1.63;1.52;;;;;;;;;;12649205;28;20035;-76
2022/08/31 01:28:28;;;;;;;1.58;1.48;;;;;;;;;;12614483;28;20052;-75
2022/08/31 01:34:30;;;;;;;1.85;1.58;;;;;;;;;;12630437;28;20413;-75
2022/08/31 01:40:37;;;;;;;1.80;1.70;;;;;;;;;;12613833;28;20039;-75
2022/08/31 01:46:39;;;;;;;1.73;1.63;;;;;;;;;;12630237;28;20032;-75
2022/08/31 01:52:41;;;;;;;1.30;1.20;;;;;;;;;;12629886;28;20047;-75
2022/08/31 01:58:43;;;;;;;1.58;1.48;;;;;;;;;;12629787;28;20055;-75
2022/08/31 02:04:50;;;;;;;1.63;1.50;;;;;;;;;;12629175;28;20422;-75
2022/08/31 02:10:54;;;;;;;1.15;1.05;;;;;;;;;;12646984;28;20036;-75
2022/08/31 02:16:56;;;;;;;1.58;1.48;;;;;;;;;;12628730;28;20040;-74
2022/08/31 02:23:02;;;;;;;1.30;1.20;;;;;;;;;;12628115;28;20032;-76
2022/08/31 02:29:06;;;;;;;1.63;1.52;;;;;;;;;;12645930;28;20450;-76
2022/08/31 02:35:08;;;;;;;2.00;1.90;;;;;;;;;;12627621;28;20608;-76
2022/08/31 02:41:09;;;;;;;;;;;;;;;;;;12628181;28;20024;-75
2022/08/31 02:47:13;;;;;;;1.33;1.23;;;;;;;;;;12610907;28;20369;-76
2022/08/31 02:53:35;;;;;;;;;;;;;;;;;;12645592;28;20047;-76
2022/08/31 02:59:37;;;;;;;1.75;1.40;;;;;;;;;;12627398;28;19923;-76
2022/08/31 03:05:39;;;;;;;1.25;1.23;;;;;;;;;;12644922;28;20040;-76
2022/08/31 03:11:42;;;;;;;1.13;1.02;;;;;;;;;;12625810;28;20035;-76
2022/08/31 03:17:44;;;;;;;1.20;1.10;;;;;;;;;;12609676;28;20036;-76
2022/08/31 03:23:46;;;;;;;1.55;1.30;;;;;;;;;;12629305;28;20054;-76
2022/08/31 03:29:48;;;;;;;1.27;0.90;;;;;;;;;;12625750;28;20051;-76
2022/08/31 03:35:52;;;;;;;0.90;0.70;;;;;;;;;;12625541;28;20048;-76
2022/08/31 03:41:54;;;;;;;0.55;0.55;;;;;;;;;;12609080;28;20035;-76
2022/08/31 03:47:59;;;;;;;0.63;0.50;;;;;;;;;;12626332;28;20036;-76
2022/08/31 03:54:01;;;;;;;0.70;0.60;;;;;;;;;;12625124;28;20043;-76
2022/08/31 04:00:04;;;;;;;0.95;0.60;;;;;;;;;;12625832;28;20473;-76
2022/08/31 04:06:34;;;;;;;0.50;0.50;;;;;;;;;;12630934;28;20047;-76
2022/08/31 04:13:08;;;;;;;1.25;0.60;;;;;;;;;;12609118;28;20655;-76
2022/08/31 04:19:30;;;;;;;1.65;0.70;;;;;;;;;;12643192;28;20051;-76
2022/08/31 04:25:37;;;;;;;0.77;0.60;;;;;;;;;;12633974;28;20040;-76
2022/08/31 04:31:40;;;;;;;0.70;0.70;;;;;;;;;;12651968;28;20056;-76
2022/08/31 04:37:41;;;;;;;0.73;0.73;;;;;;;;;;12633515;28;20052;-76
2022/08/31 04:43:45;;;;;;;1.13;1.02;;;;;;;;;;12633483;28;20028;-76
2022/08/31 04:49:47;;;;;;;0.80;0.80;;;;;;;;;;12633149;28;20032;-76
2022/08/31 04:55:49;;;;;;;1.35;0.80;;;;;;;;;;12650965;28;20378;-76
2022/08/31 05:01:52;;;;;;;0.68;0.68;;;;;;;;;;12632406;28;20040;-75
2022/08/31 05:08:26;;;;;;;1.08;1.08;;;;;;;;;;12637493;28;20036;-76
2022/08/31 05:14:28;;;;;;;1.20;0.90;;;;;;;;;;12631707;28;20039;-76
2022/08/31 05:20:38;;;;;;;0.95;0.95;;;;;;;;;;12631489;28;20039;-76
2022/08/31 05:26:47;;;;;;;0.70;0.70;;;;;;;;;;12631372;28;20028;-76
2022/08/31 05:32:49;;;;;;;0.70;0.70;;;;;;;;;;12630951;28;20516;-76
2022/08/31 05:38:52;;;;;;;1.35;0.70;;;;;;;;;;12631459;28;20485;-76
2022/08/31 05:44:54;;;;;;;;;;;;;;;;;;12614482;28;20062;-76
2022/08/31 05:50:59;;;;;;;0.70;0.70;;;;;;;;;;12613791;28;19915;-76
2022/08/31 05:57:02;;;;;;;0.52;0.52;;;;;;;;;;12613086;28;20245;-76
2022/08/31 06:03:04;;;;;;;0.70;0.70;;;;;;;;;;12612814;28;20036;-76
2022/08/31 06:09:07;;;;;;;0.50;0.50;;;;;;;;;;12629721;28;20036;-76
2022/08/31 06:15:09;;;;;;;0.80;0.60;;;;;;;;;;12628966;28;20066;-76
2022/08/31 06:21:11;;;;;;;0.57;0.50;;;;;;;;;;12628732;28;20032;-75
2022/08/31 06:27:13;;;;;;;;;;;;;;;;;;12646733;28;20043;-74
2022/08/31 06:33:15;;;;;;;0.60;0.47;;;;;;;;;;12611704;28;19919;-74
2022/08/31 06:39:32;;;;;;;1.38;0.70;;;;;;;;;;12613024;28;20043;-75
2022/08/31 06:46:06;;;;;;;0.82;0.60;;;;;;;;;;12631559;28;20036;-75
2022/08/31 06:52:32;;;;;;;1.30;0.70;;;;;;;;;;12627307;28;20032;-76
2022/08/31 06:58:58;;;;;;;0.98;0.98;;;;;;;;;;12626872;28;20048;-75
2022/08/31 07:05:18;;;;;;;;;;;;;;;;;;12629915;28;20044;-75
2022/08/31 07:11:24;;;;;;;1.20;0.95;;;;;;;;;;12609783;28;19908;-75
2022/08/31 07:17:26;;;;;;;1.63;0.98;;;;;;;;;;12626291;28;20059;-75
2022/08/31 07:23:28;;;;;;;;;;;;;;;;;;12626376;28;20039;-75
2022/08/31 07:29:41;;;;;;;0.77;0.77;;;;;;;;;;12610347;28;19916;-75
2022/08/31 07:35:46;;;;;;;1.33;0.90;;;;;;;;;;12626141;28;20052;-75
2022/08/31 07:42:10;;;;;;;0.90;0.90;;;;;;;;;;12625193;28;20036;-75
2022/08/31 07:48:12;;;;;;;1.20;1.10;;;;;;;;;;12625520;28;20032;-75
2022/08/31 07:54:27;;;;;;;0.70;0.60;;;;;;;;;;12627260;28;20040;-75
2022/08/31 08:00:48;;;;;;;0.75;0.75;;;;;;;;;;12638965;28;20286;-75
2022/08/31 08:06:54;;;;;;;0.70;0.70;;;;;;;;;;12634669;28;20497;-76
2022/08/31 08:13:15;;;;;;;0.93;0.82;;;;;;;;;;12637222;28;20039;-75
2022/08/31 08:19:33;;;;;;;1.05;1.00;;;;;;;;;;12624023;28;20044;-75
2022/08/31 08:25:35;;;;;;;0.82;0.82;;;;;;;;;;12567462;28;20043;-74
2022/08/31 08:31:41;;;;;;;1.08;0.90;;;;;;;;;;12567647;28;20060;-76
2022/08/31 08:37:46;;;;;;;0.90;0.90;;;;;;;;;;12566671;28;20052;-76
2022/08/31 08:43:57;;;;;;;1.20;1.10;;;;;;;;;;12582710;28;20482;-75
2022/08/31 08:50:05;;;;;;;0.80;0.80;;;;;;;;;;12573058;28;20036;-74
2022/08/31 08:56:12;;;;;;;1.17;1.08;;;;;;;;;;12582073;28;20044;-75
2022/08/31 09:02:18;;;;;;;1.67;1.30;;;;;;;;;;12566234;28;20032;-75
2022/08/31 09:08:39;;;;;;;1.40;1.30;;;;;;;;;;12598546;28;20044;-75
2022/08/31 09:14:57;;;;;;;1.65;1.50;;;;;;;;;;12579787;28;20035;-76
2022/08/31 09:21:12;;;;;;;2.83;2.10;;;;;;;;;;12564660;28;20059;-74
2022/08/31 09:27:18;;;;;;;1.77;1.67;;;;;;;;;;12581459;28;20075;-75
2022/08/31 09:33:22;;;;;;;2.05;1.50;;;;;;;;;;12581571;28;20052;-76
2022/08/31 09:39:31;;;;;;;2.72;1.50;;;;;;;;;;12580292;28;20036;-75
2022/08/31 09:45:36;;;;;;;1.95;1.85;;;;;;;;;;12597332;28;20032;-74
2022/08/31 09:51:38;;;;;;;1.85;1.75;;;;;;;;;;12598702;28;20025;-75
2022/08/31 09:57:42;;;;;;;1.92;1.83;;;;;;;;;;12563473;28;20037;-75
2022/08/31 10:03:46;;;;;;;2.10;2.00;;;;;;;;;;12579411;28;20048;-75
2022/08/31 10:09:50;;;;;;;2.13;2.03;;;;;;;;;;12579014;28;20024;-74
2022/08/31 10:15:59;;;;;;;2.40;2.20;;;;;;;;;;12578800;28;20812;-74
2022/08/31 10:22:09;;;;;;;1.70;1.60;;;;;;;;;;12578926;28;20043;-75
2022/08/31 10:28:14;;;;;;;1.92;1.80;;;;;;;;;;12596218;28;20418;-74
2022/08/31 10:40:49;;;;;;;2.47;2.30;;;;;;;;;;12595666;28;20036;-75
2022/08/31 10:46:57;;;;;;;2.08;1.90;;;;;;;;;;12577314;28;20398;-75
2022/08/31 10:53:14;;;;;;;2.00;1.83;;;;;;;;;;12577655;28;20375;-75
2022/08/31 10:59:31;;;;;;;1.65;1.55;;;;;;;;;;12577359;28;20044;-75
2022/08/31 11:05:47;;;;;;;1.60;1.50;;;;;;;;;;12594575;28;20036;-75
2022/08/31 11:12:05;;;;;;;1.88;1.60;;;;;;;;;;12576557;28;20394;-75
2022/08/31 11:18:13;;;;;;;2.17;1.85;;;;;;;;;;12575882;28;20044;-75
2022/08/31 11:24:27;;;;;;;2.15;1.73;;;;;;;;;;12594000;28;20051;-74
2022/08/31 11:30:30;;;;;;;1.75;1.50;;;;;;;;;;12593467;28;20048;-75
2022/08/31 11:36:49;;;;;;;1.50;1.40;;;;;;;;;;12593646;28;20063;-75
2022/08/31 11:42:52;;;;;;;1.65;1.52;;;;;;;;;;12575187;28;20032;-75
2022/08/31 11:48:53;;;;;;;1.38;1.25;;;;;;;;;;12588237;28;20040;-74
2022/08/31 11:54:57;;;;;;;1.30;1.20;;;;;;;;;;12575350;28;20040;-76
2022/08/31 12:01:01;;;;;;;1.17;1.08;;;;;;;;;;12594150;28;20045;-76
2022/08/31 12:07:04;;;;;;;1.65;1.55;;;;;;;;;;12592952;28;20044;-75
2022/08/31 12:13:06;;;;;;;1.65;1.55;;;;;;;;;;12592655;28;20044;-76
2022/08/31 12:25:40;;;;;;;1.25;1.20;;;;;;;;;;12592539;28;20044;-76
2022/08/31 12:31:53;;;;;;;1.70;1.60;;;;;;;;;;12593110;28;20056;-75
2022/08/31 12:37:58;;;;;;;1.20;1.10;;;;;;;;;;12592026;28;20398;-75
2022/08/31 12:43:59;;;;;;;1.52;1.42;;;;;;;;;;12562284;28;20032;-75
2022/08/31 12:50:16;;;;;;;1.63;1.52;;;;;;;;;;12583230;28;20044;-75
2022/08/31 12:56:20;;;;;;;0.95;0.95;;;;;;;;;;12600397;28;20048;-75
2022/08/31 13:02:23;;;;;;;1.60;1.40;;;;;;;;;;12582810;28;20393;-75
2022/08/31 13:08:26;;;;;;;1.70;1.60;;;;;;;;;;12600650;28;20529;-75
2022/08/31 13:14:39;;;;;;;1.73;1.25;;;;;;;;;;12599562;28;20032;-75
2022/08/31 13:20:42;;;;;;;1.50;1.40;;;;;;;;;;12581658;28;20524;-75
2022/08/31 13:26:46;;;;;;;1.67;1.50;;;;;;;;;;12581133;28;20032;-75
2022/08/31 13:32:49;;;;;;;1.20;1.10;;;;;;;;;;12598916;28;20052;-75
2022/08/31 13:38:52;;;;;;;1.33;1.13;;;;;;;;;;12564051;28;20410;-74
2022/08/31 13:44:56;;;;;;;1.20;1.13;;;;;;;;;;12598468;28;20202;-74
2022/08/31 13:51:08;;;;;;;1.45;1.35;;;;;;;;;;12581501;28;20033;-75
2022/08/31 13:57:18;;;;;;;1.67;1.58;;;;;;;;;;12579276;28;20043;-75
2022/08/31 14:03:39;;;;;;;1.40;1.30;;;;;;;;;;12563121;28;20037;-75
2022/08/31 14:09:45;;;;;;;1.00;1.00;;;;;;;;;;12597411;28;20037;-76
2022/08/31 14:15:49;;;;;;;1.42;1.33;;;;;;;;;;12562289;28;20062;-76
2022/08/31 14:21:50;;;;;;;1.17;1.10;;;;;;;;;;12597330;28;20039;-76
2022/08/31 14:27:52;;;;;;;0.90;0.85;;;;;;;;;;12596067;28;20043;-76
2022/08/31 14:34:11;;;;;;;1.00;1.00;;;;;;;;;;12561927;28;20044;-76
2022/08/31 14:40:13;;;;;;;1.40;1.30;;;;;;;;;;12577636;28;20052;-75
2022/08/31 14:46:17;;;;;;;1.45;1.35;;;;;;;;;;12577698;28;20035;-76
2022/08/31 14:52:19;;;;;;;1.92;1.50;;;;;;;;;;12577730;28;20036;-76
2022/08/31 14:58:22;;;;;;;1.83;1.73;;;;;;;;;;12576990;28;20048;-76
2022/08/31 15:04:26;;;;;;;1.50;1.40;;;;;;;;;;12594422;28;20036;-75
2022/08/31 15:10:28;;;;;;;1.35;1.25;;;;;;;;;;12576858;28;20035;-75
2022/08/31 15:16:30;;;;;;;1.60;1.45;;;;;;;;;;12594399;28;20509;-75
2022/08/31 15:22:32;;;;;;;1.48;1.38;;;;;;;;;;12594023;28;20375;-76
2022/08/31 15:28:36;;;;;;;1.55;1.45;;;;;;;;;;12594619;28;20059;-74
2022/08/31 15:34:38;;;;;;;1.45;1.35;;;;;;;;;;12575823;28;20493;-75
2022/08/31 15:40:40;;;;;;;1.40;1.30;;;;;;;;;;12559016;28;20494;-77
2022/08/31 15:53:05;;;;;;;0.90;0.90;;;;;;;;;;12575939;28;20041;-75
2022/08/31 15:59:08;;;;;;;0.90;0.90;;;;;;;;;;12593809;28;20037;-76
2022/08/31 16:05:11;;;;;;;1.00;1.00;;;;;;;;;;12593285;28;20401;-75
2022/08/31 16:11:14;;;;;;;0.90;0.90;;;;;;;;;;12592998;28;20059;-75
2022/08/31 16:17:18;;;;;;;1.20;1.13;;;;;;;;;;12564313;28;20098;-75
2022/08/31 16:23:20;;;;;;;0.98;0.98;;;;;;;;;;12605435;28;20390;-75
2022/08/31 16:29:23;;;;;;;2.65;1.58;;;;;;;;;;12593671;28;20060;-76
2022/08/31 16:35:25;;;;;;;1.40;1.30;;;;;;;;;;12617823;28;20044;-75
2022/08/31 16:41:30;;;;;;;1.50;1.40;;;;;;;;;;12603733;28;20418;-75
2022/08/31 16:47:32;;;;;;;1.15;1.15;;;;;;;;;;12601206;28;20033;-75
2022/08/31 16:53:34;;;;;;;1.48;1.15;;;;;;;;;;12600856;28;20541;-75
2022/08/31 16:59:36;;;;;;;2.20;1.48;;;;;;;;;;12583334;28;20478;-75
2022/08/31 17:05:38;;;;;;;1.27;1.17;;;;;;;;;;12584062;28;20490;-75
2022/08/31 17:11:46;;;;;;;0.90;0.90;;;;;;;;;;12599762;28;20032;-75
2022/08/31 17:17:47;;;;;;;1.60;1.48;;;;;;;;;;12599553;28;20048;-75
2022/08/31 17:23:50;;;;;;;1.35;1.25;;;;;;;;;;12600098;28;20044;-75
2022/08/31 17:29:54;;;;;;;1.40;1.30;;;;;;;;;;12581948;28;20494;-76
2022/08/31 17:35:56;;;;;;;1.10;1.10;;;;;;;;;;12564701;28;20040;-76
2022/08/31 17:41:58;;;;;;;1.27;1.00;;;;;;;;;;12581440;28;20028;-75
2022/08/31 17:48:00;;;;;;;1.50;1.40;;;;;;;;;;12598321;28;20043;-75
2022/08/31 17:54:09;;;;;;;1.58;1.48;;;;;;;;;;12580439;28;20035;-76
2022/08/31 18:00:13;;;;;;;1.42;1.33;;;;;;;;;;12563325;28;20048;-76
2022/08/31 18:06:18;;;;;;;1.65;1.42;;;;;;;;;;12597498;28;20033;-75
2022/08/31 18:12:21;;;;;;;1.67;1.58;;;;;;;;;;12580299;28;20033;-76
2022/08/31 18:18:23;;;;;;;1.50;1.40;;;;;;;;;;12596702;28;20408;-76
2022/08/31 18:24:25;;;;;;;1.45;1.35;;;;;;;;;;12578956;28;20040;-76
2022/08/31 18:30:27;;;;;;;1.40;1.30;;;;;;;;;;12596446;28;20049;-75
2022/08/31 18:36:29;;;;;;;2.22;1.98;;;;;;;;;;12595944;28;20043;-75
2022/08/31 18:48:55;;;;;;;2.05;1.90;;;;;;;;;;12595312;28;20044;-75
2022/08/31 18:54:57;;;;;;;1.50;1.40;;;;;;;;;;12577565;28;20036;-75
2022/08/31 19:00:59;;;;;;;1.45;1.35;;;;;;;;;;12576951;28;20055;-74
2022/08/31 19:07:01;;;;;;;1.95;1.50;;;;;;;;;;12576603;28;20037;-75
2022/08/31 19:13:03;;;;;;;1.38;1.27;;;;;;;;;;12577116;28;20035;-75
2022/08/31 19:19:05;;;;;;;1.52;1.42;;;;;;;;;;12593958;28;20045;-75
2022/08/31 19:25:10;;;;;;;1.52;1.42;;;;;;;;;;12593921;28;20474;-75
2022/08/31 19:31:12;;;;;;;1.00;1.00;;;;;;;;;;12594737;28;20413;-75
2022/08/31 19:37:15;;;;;;;1.92;1.42;;;;;;;;;;12576014;28;20064;-76
2022/08/31 19:43:16;;;;;;;1.85;1.65;;;;;;;;;;12576585;28;20043;-76
2022/08/31 19:49:18;;;;;;;;;;;;;;;;;;12595112;28;20040;-76
2022/08/31 19:55:20;;;;;;;1.63;1.52;;;;;;;;;;12603143;28;20324;-75
2022/08/31 20:01:24;;;;;;;;;;;;;;;;;;12585953;28;20508;-76
2022/08/31 20:07:27;;;;;;;1.67;1.58;;;;;;;;;;12585253;28;19909;-74
2022/08/31 20:13:28;;;;;;;1.80;1.70;;;;;;;;;;12604005;28;20485;-76
2022/08/31 20:19:30;;;;;;;;;;;;;;;;;;12603986;28;20040;-75
2022/08/31 20:25:36;;;;;;;1.63;1.53;;;;;;;;;;12602367;28;19908;-76
2022/08/31 20:31:38;;;;;;;1.45;1.35;;;;;;;;;;12584479;28;20048;-75
2022/08/31 20:37:40;;;;;;;1.20;1.20;;;;;;;;;;12602484;28;20418;-75
2022/08/31 20:43:43;;;;;;;;;;;;;;;;;;12567825;28;20039;-74
2022/08/31 20:49:49;;;;;;;1.80;1.58;;;;;;;;;;12583205;28;19912;-75
2022/08/31 20:55:51;;;;;;;1.48;1.38;;;;;;;;;;12601878;28;20032;-76
2022/08/31 21:01:54;;;;;;;;;;;;;;;;;;12582282;28;20068;-75
2022/08/31 21:07:56;;;;;;;1.13;1.13;;;;;;;;;;12565782;28;20148;-75
2022/08/31 21:13:58;;;;;;;2.67;1.80;;;;;;;;;;12600019;28;20048;-75
2022/08/31 21:20:00;;;;;;;1.30;1.20;;;;;;;;;;12581719;28;20036;-75
2022/08/31 21:26:03;;;;;;;1.90;1.77;;;;;;;;;;12599571;28;20039;-75
2022/08/31 21:32:07;;;;;;;1.75;1.65;;;;;;;;;;12565512;28;20100;-75
2022/08/31 21:38:11;;;;;;;1.88;1.48;;;;;;;;;;12598530;28;20389;-75
2022/08/31 21:44:15;;;;;;;1.55;1.45;;;;;;;;;;12599263;28;20044;-75
2022/08/31 21:50:17;;;;;;;2.38;2.17;;;;;;;;;;12580896;28;20047;-75
2022/08/31 21:56:19;;;;;;;;;;;;;;;;;;12598303;28;20191;-74
2022/08/31 22:02:20;;;;;;;2.17;2.00;;;;;;;;;;12579956;28;19908;-74
2022/08/31 22:08:24;;;;;;;3.55;2.03;;;;;;;;;;12577581;28;20608;-74
2022/08/31 22:14:28;;;;;;;2.20;2.00;;;;;;;;;;12595089;28;20028;-74
2022/08/31 22:20:31;;;;;;;2.55;2.22;;;;;;;;;;12578950;28;20071;-74
2022/08/31 22:26:35;;;;;;;2.25;2.15;;;;;;;;;;12562100;28;20040;-74
2022/08/31 22:32:37;;;;;;;2.25;1.90;;;;;;;;;;12579240;28;20084;-74
2022/08/31 22:38:39;;;;;;;1.98;1.88;;;;;;;;;;12596507;28;20043;-74
2022/08/31 22:44:41;;;;;;;1.85;1.75;;;;;;;;;;12595855;28;20429;-74
2022/08/31 22:50:42;;;;;;;;;;;;;;;;;;12595584;28;20043;-75
2022/08/31 22:56:44;;;;;;;2.43;2.23;;;;;;;;;;12558693;28;19917;-75
2022/08/31 23:02:46;;;;;;;2.45;1.70;;;;;;;;;;12574741;28;20031;-75
2022/08/31 23:08:49;;;;;;;2.05;1.95;;;;;;;;;;12558732;28;20044;-75
2022/08/31 23:14:50;;;;;;;1.50;1.40;;;;;;;;;;12560381;28;20032;-75
2022/08/31 23:20:52;;;;;;;;;;;;;;;;;;12595394;28;20268;-75
2022/08/31 23:26:56;;;;;;;1.83;1.73;;;;;;;;;;12576404;28;19935;-75
2022/08/31 23:33:01;;;;;;;1.65;1.50;;;;;;;;;;12594279;28;20501;-76
2022/08/31 23:39:03;;;;;;;1.95;1.85;;;;;;;;;;12593929;28;20059;-75
2022/08/31 23:45:06;;;;;;;1.80;1.70;;;;;;;;;;12574499;28;20411;-75
2022/08/31 23:51:08;;;;;;;2.03;1.50;;;;;;;;;;12574076;28;20486;-76
2022/08/31 23:57:10;;;;;;;2.65;2.40;;;;;;;;;;12591370;28;20390;-76
